createdAt,value
2024-04-01T00:02:02.601Z,62.50
2024-04-01T00:04:31.249Z,58.50
2024-04-01T00:06:59.544Z,59.00
2024-04-01T00:09:30.958Z,58.75
2024-04-01T00:11:59.063Z,55.00
2024-04-01T00:14:30.402Z,53.75
2024-04-01T00:16:58.849Z,50.50
2024-04-01T00:19:35.869Z,53.00
2024-04-01T00:22:05.151Z,50.25
2024-04-01T00:24:37.611Z,46.50
2024-04-01T00:27:05.981Z,43.00
2024-04-01T00:29:40.599Z,38.50
2024-04-01T00:32:11.644Z,47.00
2024-04-01T00:34:41.483Z,43.75
2024-04-01T00:37:15.132Z,41.00
2024-04-01T00:39:43.388Z,46.00
2024-04-01T00:42:13.797Z,48.50
2024-04-01T00:44:41.970Z,52.25
2024-04-01T00:47:10.305Z,49.75
2024-04-01T00:49:38.987Z,49.50
2024-04-01T00:52:07.918Z,48.25
2024-04-01T00:54:36.214Z,52.75
2024-04-01T00:57:04.925Z,58.00
2024-04-01T00:59:34.460Z,54.00
2024-04-01T01:02:07.753Z,58.00
2024-04-01T01:04:38.051Z,58.67
2024-04-01T01:07:14.958Z,59.50
2024-04-01T01:09:47.020Z,49.75
2024-04-01T01:12:15.588Z,67.75
2024-04-01T01:14:44.026Z,70.50
2024-04-01T01:17:13.427Z,84.50
2024-04-01T01:19:41.586Z,69.25
2024-04-01T01:22:09.887Z,55.75
2024-04-01T01:24:37.874Z,59.25
2024-04-01T01:27:05.986Z,50.00
2024-04-01T01:29:36.131Z,54.00
2024-04-01T01:32:05.002Z,42.75
2024-04-01T01:34:36.561Z,56.50
2024-04-01T01:37:05.235Z,51.50
2024-04-01T01:39:33.776Z,46.75
2024-04-01T01:42:02.457Z,50.50
2024-04-01T01:44:35.060Z,48.50
2024-04-01T01:47:06.618Z,43.00
2024-04-01T01:49:37.239Z,38.00
2024-04-01T01:52:10.730Z,45.25
2024-04-01T01:54:39.955Z,37.25
2024-04-01T01:57:13.486Z,47.00
2024-04-01T01:59:41.837Z,39.25
2024-04-01T02:02:22.452Z,39.25
2024-04-01T02:04:50.932Z,40.25
2024-04-01T02:07:24.571Z,40.25
2024-04-01T02:09:59.288Z,48.25
2024-04-01T02:12:31.040Z,54.25
2024-04-01T02:15:23.216Z,57.00
2024-04-01T02:18:01.975Z,56.00
2024-04-01T02:20:35.780Z,61.00
2024-04-01T02:23:08.350Z,61.00
2024-04-01T02:25:39.649Z,57.50
2024-04-01T02:28:13.225Z,58.00
2024-04-01T02:30:41.547Z,59.75
2024-04-01T02:33:14.969Z,57.25
2024-04-01T02:35:48.690Z,56.50
2024-04-01T02:38:20.507Z,72.75
2024-04-01T02:40:53.311Z,71.25
2024-04-01T02:43:21.878Z,85.50
2024-04-01T02:46:01.624Z,69.25
2024-04-01T02:48:38.681Z,67.25
2024-04-01T02:51:07.257Z,66.25
2024-04-01T02:53:38.239Z,67.00
2024-04-01T02:56:09.871Z,66.75
2024-04-01T02:58:46.296Z,74.00
2024-04-01T03:01:14.646Z,65.00
2024-04-01T03:03:43.027Z,64.50
2024-04-01T03:06:11.218Z,62.33
2024-04-01T03:08:40.384Z,61.75
2024-04-01T03:11:27.419Z,59.00
2024-04-01T03:13:55.927Z,58.50
2024-04-01T03:16:29.736Z,65.50
2024-04-01T03:19:03.518Z,68.50
2024-04-01T03:21:41.154Z,71.50
2024-04-01T03:24:19.631Z,57.25
2024-04-01T03:26:56.348Z,59.75
2024-04-01T03:29:47.329Z,69.75
2024-04-01T03:32:24.929Z,111.75
2024-04-01T03:34:59.019Z,63.00
2024-04-01T03:37:30.322Z,60.00
2024-04-01T03:40:00.133Z,61.50
2024-04-01T03:42:34.380Z,54.75
2024-04-01T03:45:07.611Z,59.50
2024-04-01T03:47:39.041Z,56.50
2024-04-01T03:50:12.451Z,66.75
2024-04-01T03:52:43.826Z,54.25
2024-04-01T03:55:12.042Z,51.75
2024-04-01T03:57:40.269Z,62.50
2024-04-01T04:00:09.960Z,62.00
2024-04-01T04:02:38.383Z,61.33
2024-04-01T04:05:10.943Z,58.50
2024-04-01T04:07:42.864Z,55.00
2024-04-01T04:10:25.827Z,47.50
2024-04-01T04:12:59.866Z,56.67
2024-04-01T04:15:59.557Z,52.75
2024-04-01T04:18:30.591Z,51.50
2024-04-01T04:20:58.815Z,51.00
2024-04-01T04:23:37.720Z,70.50
2024-04-01T04:26:10.051Z,59.25
2024-04-01T04:28:42.921Z,62.50
2024-04-01T04:31:11.542Z,55.00
2024-04-01T04:33:42.102Z,58.75
2024-04-01T04:36:23.256Z,61.00
2024-04-01T04:38:54.753Z,64.25
2024-04-01T04:41:27.799Z,63.67
2024-04-01T04:43:59.489Z,68.00
2024-04-01T04:46:27.926Z,131.75
2024-04-01T04:48:59.269Z,109.75
2024-04-01T04:51:36.232Z,85.00
2024-04-01T04:54:05.898Z,70.75
2024-04-01T04:56:36.633Z,81.00
2024-04-01T04:59:06.004Z,75.75
2024-04-01T05:01:34.436Z,82.00
2024-04-01T05:04:14.326Z,73.75
2024-04-01T05:06:45.066Z,76.50
2024-04-01T05:09:13.436Z,73.50
2024-04-01T05:11:50.267Z,72.50
2024-04-01T05:14:18.528Z,60.50
2024-04-01T05:16:52.623Z,62.50
2024-04-01T05:19:26.774Z,62.75
2024-04-01T05:22:02.753Z,70.00
2024-04-01T05:24:42.375Z,67.00
2024-04-01T05:27:24.714Z,65.00
2024-04-01T05:30:12.583Z,65.00
2024-04-01T05:32:55.542Z,66.50
2024-04-01T05:35:34.081Z,66.25
2024-04-01T05:38:09.804Z,61.50
2024-04-01T05:40:40.891Z,60.00
2024-04-01T05:43:09.109Z,54.25
2024-04-01T05:45:50.784Z,61.00
2024-04-01T05:48:19.758Z,51.50
2024-04-01T05:51:21.856Z,55.00
2024-04-01T05:53:52.364Z,57.75
2024-04-01T05:56:21.550Z,50.00
2024-04-01T05:58:50.382Z,46.75
2024-04-01T06:01:22.128Z,48.50
2024-04-01T06:03:51.409Z,48.33
2024-04-01T06:06:28.469Z,44.00
2024-04-01T06:08:57.155Z,54.75
2024-04-01T06:11:25.438Z,49.75
2024-04-01T06:13:53.832Z,51.25
2024-04-01T06:16:22.114Z,55.00
2024-04-01T06:18:50.795Z,44.25
2024-04-01T06:21:19.085Z,50.50
2024-04-01T06:24:00.622Z,41.25
2024-04-01T06:26:39.308Z,47.33
2024-04-01T06:29:07.594Z,47.00
2024-04-01T06:31:35.824Z,45.75
2024-04-01T06:34:04.197Z,44.50
2024-04-01T06:36:50.186Z,47.75
2024-04-01T06:39:18.937Z,47.00
2024-04-01T06:42:01.319Z,65.00
2024-04-01T06:44:32.653Z,44.25
2024-04-01T06:47:01.029Z,45.75
2024-04-01T06:49:35.140Z,48.25
2024-04-01T06:52:08.591Z,43.75
2024-04-01T06:54:47.170Z,50.25
2024-04-01T06:57:22.187Z,52.25
2024-04-01T06:59:56.306Z,51.50
2024-04-01T07:02:40.252Z,56.00
2024-04-01T07:05:14.458Z,56.00
2024-04-01T07:07:45.788Z,55.25
2024-04-01T07:10:14.189Z,56.75
2024-04-01T07:12:42.464Z,51.00
2024-04-01T07:15:17.969Z,49.00
2024-04-01T07:17:46.732Z,50.00
2024-04-01T07:20:18.623Z,46.75
2024-04-01T07:22:46.851Z,40.50
2024-04-01T07:25:15.404Z,42.50
2024-04-01T07:27:48.147Z,38.75
2024-04-01T07:30:19.917Z,34.75
2024-04-01T07:32:48.240Z,44.75
2024-04-01T07:35:25.709Z,44.25
2024-04-01T07:37:53.815Z,44.50
2024-04-01T07:40:22.049Z,45.75
2024-04-01T07:42:52.492Z,34.75
2024-04-01T07:45:23.614Z,47.00
2024-04-01T07:47:51.771Z,57.25
2024-04-01T07:50:22.300Z,47.50
2024-04-01T07:52:56.146Z,51.00
2024-04-01T07:55:24.503Z,48.50
2024-04-01T07:57:52.806Z,53.25
2024-04-01T08:00:24.236Z,50.50
2024-04-01T08:02:52.675Z,46.00
2024-04-01T08:05:22.823Z,47.50
2024-04-01T08:07:51.346Z,44.75
2024-04-01T08:10:19.558Z,41.75
2024-04-01T08:12:47.690Z,43.00
2024-04-01T08:15:15.944Z,40.00
2024-04-01T08:17:45.079Z,34.50
2024-04-01T08:20:13.257Z,42.75
2024-04-01T08:22:41.301Z,45.00
2024-04-01T08:25:09.432Z,40.75
2024-04-01T08:27:40.816Z,34.25
2024-04-01T08:30:10.394Z,41.00
2024-04-01T08:32:38.323Z,37.33
2024-04-01T08:35:06.732Z,42.50
2024-04-01T08:37:37.156Z,43.00
2024-04-01T08:40:05.940Z,38.75
2024-04-01T08:42:37.428Z,45.25
2024-04-01T08:45:09.343Z,45.50
2024-04-01T08:47:44.211Z,45.50
2024-04-01T08:50:36.294Z,46.75
2024-04-01T08:53:12.675Z,46.50
2024-04-01T08:55:42.530Z,60.25
2024-04-01T08:58:12.414Z,43.75
2024-04-01T09:00:41.624Z,42.50
2024-04-01T09:03:10.122Z,46.25
2024-04-01T09:05:38.167Z,54.50
2024-04-01T09:08:06.831Z,45.00
2024-04-01T09:10:35.233Z,43.33
2024-04-01T09:13:05.246Z,46.25
2024-04-01T09:15:33.543Z,51.50
2024-04-01T09:18:03.739Z,48.25
2024-04-01T09:20:32.608Z,53.00
2024-04-01T09:23:00.710Z,50.00
2024-04-01T09:25:29.134Z,51.25
2024-04-01T09:27:57.726Z,58.50
2024-04-01T09:30:25.978Z,51.00
2024-04-01T09:32:54.604Z,51.75
2024-04-01T09:35:26.696Z,55.00
2024-04-01T09:37:55.184Z,51.75
2024-04-01T09:40:23.600Z,51.50
2024-04-01T09:42:58.454Z,54.67
2024-04-01T09:45:28.526Z,65.50
2024-04-01T09:48:23.045Z,48.25
2024-04-01T09:50:52.847Z,47.00
2024-04-01T09:53:21.184Z,38.00
2024-04-01T09:56:01.710Z,64.25
2024-04-01T09:58:51.054Z,37.25
2024-04-01T10:01:46.621Z,41.25
2024-04-01T10:04:42.176Z,39.50
2024-04-01T10:07:46.064Z,37.75
2024-04-01T10:10:33.636Z,43.00
2024-04-01T10:13:34.250Z,37.25
2024-04-01T10:16:15.019Z,37.75
2024-04-01T10:19:09.788Z,34.25
2024-04-01T10:22:18.105Z,44.00
2024-04-01T10:24:55.904Z,38.00
2024-04-01T10:27:42.628Z,41.50
2024-04-01T10:30:57.437Z,48.25
2024-04-01T10:33:31.948Z,39.25
2024-04-01T10:36:26.826Z,40.25
2024-04-01T10:39:30.569Z,40.75
2024-04-01T10:42:39.057Z,44.00
2024-04-01T10:45:52.873Z,44.50
2024-04-01T10:48:26.999Z,38.25
2024-04-01T10:51:32.726Z,36.50
2024-04-01T10:54:20.938Z,35.00
2024-04-01T10:57:47.903Z,36.75
2024-04-01T11:00:45.080Z,38.25
2024-04-01T11:03:46.534Z,36.50
2024-04-01T11:06:25.943Z,41.00
2024-04-01T11:09:25.487Z,42.75
2024-04-01T11:12:13.455Z,40.75
2024-04-01T11:15:09.798Z,41.50
2024-04-01T11:17:44.532Z,34.00
2024-04-01T11:20:27.915Z,45.00
2024-04-01T11:23:13.093Z,44.67
2024-04-01T11:26:00.001Z,39.75
2024-04-01T11:28:49.417Z,44.00
2024-04-01T11:31:25.012Z,33.50
2024-04-01T11:33:58.183Z,46.25
2024-04-01T11:36:42.107Z,48.00
2024-04-01T11:39:17.340Z,36.50
2024-04-01T11:41:52.106Z,35.75
2024-04-01T11:44:25.671Z,49.00
2024-04-01T11:46:57.488Z,39.50
2024-04-01T11:49:25.695Z,46.75
2024-04-01T11:51:57.442Z,43.75
2024-04-01T11:54:28.885Z,35.00
2024-04-01T11:56:57.033Z,47.75
2024-04-01T11:59:31.124Z,61.50
2024-04-01T12:01:59.835Z,44.50
2024-04-01T12:04:29.680Z,39.75
2024-04-01T12:06:57.897Z,37.67
2024-04-01T12:09:26.989Z,43.75
2024-04-01T12:11:55.206Z,33.25
2024-04-01T12:14:28.107Z,44.75
2024-04-01T12:17:00.846Z,36.25
2024-04-01T12:19:30.454Z,45.00
2024-04-01T12:21:58.774Z,44.25
2024-04-01T12:24:27.840Z,45.33
2024-04-01T12:26:57.255Z,44.75
2024-04-01T12:29:25.588Z,36.50
2024-04-01T12:31:54.088Z,46.75
2024-04-01T12:34:45.969Z,38.00
2024-04-01T12:37:26.931Z,53.00
2024-04-01T12:40:08.753Z,41.75
2024-04-01T12:42:44.843Z,42.00
2024-04-01T12:46:18.916Z,36.00
2024-04-01T12:49:07.671Z,37.75
2024-04-01T12:51:39.937Z,56.25
2024-04-01T12:55:07.861Z,44.50
2024-04-01T12:58:04.607Z,41.25
2024-04-01T13:01:10.630Z,41.25
2024-04-01T13:04:25.210Z,43.75
2024-04-01T13:07:18.300Z,59.00
2024-04-01T13:09:59.336Z,44.25
2024-04-01T13:13:17.080Z,40.75
2024-04-01T13:16:01.284Z,44.00
2024-04-01T13:19:19.808Z,43.25
2024-04-01T13:22:34.396Z,55.00
2024-04-01T13:25:30.670Z,39.00
2024-04-01T13:28:44.818Z,47.50
2024-04-01T13:31:41.972Z,38.25
2024-04-01T13:34:43.296Z,59.67
2024-04-01T13:38:10.048Z,53.00
2024-04-01T13:41:12.876Z,50.75
2024-04-01T13:44:42.198Z,43.50
2024-04-01T13:48:12.823Z,46.00
2024-04-01T13:51:37.174Z,67.00
2024-04-01T13:54:36.263Z,47.25
2024-04-01T13:57:52.452Z,39.50
2024-04-01T14:01:25.589Z,38.25
2024-04-01T14:04:34.522Z,43.75
2024-04-01T14:07:51.431Z,50.00
2024-04-01T14:11:15.291Z,40.00
2024-04-01T14:14:24.934Z,47.00
2024-04-01T14:17:34.947Z,44.25
2024-04-01T14:20:38.664Z,48.00
2024-04-01T14:23:29.778Z,38.00
2024-04-01T14:26:19.279Z,44.50
2024-04-01T14:28:57.838Z,33.75
2024-04-01T14:31:39.628Z,40.75
2024-04-01T14:34:36.057Z,33.25
2024-04-01T14:38:01.574Z,40.25
2024-04-01T14:40:52.458Z,47.75
2024-04-01T14:43:42.279Z,36.50
2024-04-01T14:46:28.737Z,35.50
2024-04-01T14:49:03.199Z,36.00
2024-04-01T14:51:36.281Z,34.00
2024-04-01T14:54:16.653Z,45.00
2024-04-01T14:57:12.970Z,48.00
2024-04-01T14:59:50.308Z,45.75
2024-04-01T15:02:22.178Z,39.25
2024-04-01T15:04:52.080Z,39.50
2024-04-01T15:07:27.969Z,29.00
2024-04-01T15:10:00.642Z,30.00
2024-04-01T15:12:29.049Z,35.75
2024-04-01T15:14:57.714Z,38.00
2024-04-01T15:17:29.354Z,35.00
2024-04-01T15:19:58.027Z,45.50
2024-04-01T15:22:27.371Z,51.25
2024-04-01T15:24:56.738Z,37.33
2024-04-01T15:27:25.783Z,32.25
2024-04-01T15:29:53.939Z,38.25
2024-04-01T15:32:21.964Z,30.25
2024-04-01T15:34:50.161Z,40.25
2024-04-01T15:37:19.046Z,43.50
2024-04-01T15:39:48.009Z,42.00
2024-04-01T15:42:20.287Z,38.50
2024-04-01T15:44:48.477Z,47.50
2024-04-01T15:47:16.851Z,32.75
2024-04-01T15:49:45.636Z,44.75
2024-04-01T15:52:13.913Z,40.75
2024-04-01T15:54:42.168Z,37.25
2024-04-01T15:57:13.354Z,41.00
2024-04-01T15:59:43.212Z,44.25
2024-04-01T16:02:23.827Z,43.00
2024-04-01T16:04:54.403Z,45.00
2024-04-01T16:07:23.558Z,50.50
2024-04-01T16:09:52.606Z,48.75
2024-04-01T16:12:25.612Z,66.00
2024-04-01T16:14:54.997Z,101.75
2024-04-01T16:17:37.469Z,68.50
2024-04-01T16:20:12.003Z,56.00
2024-04-01T16:22:43.444Z,67.25
2024-04-01T16:25:15.260Z,55.25
2024-04-01T16:27:50.926Z,76.00
2024-04-01T16:30:28.484Z,93.00
2024-04-01T16:33:01.384Z,71.50
2024-04-01T16:35:31.331Z,68.00
2024-04-01T16:38:02.848Z,65.50
2024-04-01T16:40:32.169Z,56.75
2024-04-01T16:43:14.504Z,63.75
2024-04-01T16:45:50.115Z,64.00
2024-04-01T16:48:25.671Z,55.75
2024-04-01T16:50:53.974Z,64.50
2024-04-01T16:53:23.131Z,53.25
2024-04-01T16:55:51.631Z,53.75
2024-04-01T16:58:25.329Z,61.25
2024-04-01T17:00:53.767Z,63.67
2024-04-01T17:03:35.327Z,38.00
2024-04-01T17:06:21.967Z,46.50
2024-04-01T17:08:59.726Z,45.25
2024-04-01T17:11:30.982Z,46.25
2024-04-01T17:14:00.050Z,42.25
2024-04-01T17:16:30.986Z,45.00
2024-04-01T17:19:04.530Z,32.75
2024-04-01T17:21:34.327Z,42.33
2024-04-01T17:24:04.200Z,48.00
2024-04-01T17:26:33.527Z,53.25
2024-04-01T17:29:02.372Z,51.25
2024-04-01T17:31:32.235Z,47.25
2024-04-01T17:34:06.926Z,52.25
2024-04-01T17:36:35.560Z,56.50
2024-04-01T17:39:05.119Z,36.00
2024-04-01T17:41:33.753Z,43.00
2024-04-01T17:44:02.251Z,45.25
2024-04-01T17:46:32.306Z,48.00
2024-04-01T17:49:02.333Z,45.00
2024-04-01T17:51:33.169Z,46.00
2024-04-01T17:54:11.526Z,38.25
2024-04-01T17:56:42.938Z,41.75
2024-04-01T17:59:13.151Z,44.33
2024-04-01T18:01:45.545Z,45.00
2024-04-01T18:04:35.440Z,44.67
2024-04-01T18:07:04.545Z,38.50
2024-04-01T18:09:33.405Z,53.25
2024-04-01T18:12:11.127Z,49.25
2024-04-01T18:14:46.497Z,48.00
2024-04-01T18:17:20.890Z,39.50
2024-04-01T18:20:02.323Z,46.75
2024-04-01T18:22:31.425Z,47.00
2024-04-01T18:24:59.966Z,47.50
2024-04-01T18:27:56.954Z,44.67
2024-04-01T18:30:36.858Z,38.50
2024-04-01T18:33:27.166Z,50.33
2024-04-01T18:36:26.002Z,56.00
2024-04-01T18:38:58.913Z,48.25
2024-04-01T18:41:44.776Z,52.50
2024-04-01T18:44:19.035Z,55.50
2024-04-01T18:46:47.845Z,44.50
2024-04-01T18:49:58.912Z,51.33
2024-04-01T18:52:30.506Z,46.33
2024-04-01T18:55:11.065Z,55.00
2024-04-01T18:57:40.059Z,50.00
2024-04-01T19:00:13.649Z,51.25
2024-04-01T19:02:42.512Z,55.50
2024-04-01T19:05:16.719Z,66.25
2024-04-01T19:07:48.753Z,52.50
2024-04-01T19:10:19.546Z,48.50
2024-04-01T19:12:47.974Z,42.75
2024-04-01T19:15:27.558Z,45.25
2024-04-01T19:18:00.807Z,50.50
2024-04-01T19:20:32.027Z,38.00
2024-04-01T19:23:07.684Z,50.25
2024-04-01T19:25:36.084Z,50.75
2024-04-01T19:28:04.391Z,37.50
2024-04-01T19:30:38.134Z,39.50
2024-04-01T19:33:06.288Z,27.67
2024-04-01T19:35:36.654Z,40.50
2024-04-01T19:38:05.150Z,40.33
2024-04-01T19:40:35.855Z,40.00
2024-04-01T19:43:06.407Z,53.75
2024-04-01T19:45:36.363Z,42.75
2024-04-01T19:48:05.477Z,41.00
2024-04-01T19:50:36.547Z,44.25
2024-04-01T19:53:15.579Z,43.25
2024-04-01T19:55:44.009Z,40.00
2024-04-01T19:58:12.540Z,46.00
2024-04-01T20:00:40.811Z,42.25
2024-04-01T20:03:09.587Z,41.75
2024-04-01T20:05:38.020Z,41.25
2024-04-01T20:08:15.502Z,46.00
2024-04-01T20:10:46.940Z,43.00
2024-04-01T20:13:21.595Z,40.50
2024-04-01T20:15:50.348Z,43.50
2024-04-01T20:18:27.083Z,49.00
2024-04-01T20:20:55.882Z,50.25
2024-04-01T20:23:23.974Z,65.50
2024-04-01T20:25:56.617Z,55.50
2024-04-01T20:28:26.966Z,47.75
2024-04-01T20:30:57.421Z,54.00
2024-04-01T20:33:27.766Z,43.00
2024-04-01T20:35:57.642Z,41.67
2024-04-01T20:38:25.765Z,39.00
2024-04-01T20:40:59.711Z,47.67
2024-04-01T20:43:28.695Z,35.50
2024-04-01T20:45:57.178Z,41.75
2024-04-01T20:48:27.243Z,35.75
2024-04-01T20:51:03.593Z,37.67
2024-04-01T20:54:03.052Z,33.50
2024-04-01T20:56:57.300Z,37.00
2024-04-01T20:59:31.319Z,48.67
2024-04-01T21:02:28.895Z,40.00
2024-04-01T21:05:35.637Z,51.00
2024-04-01T21:08:08.945Z,36.00
2024-04-01T21:10:47.093Z,41.50
2024-04-01T21:13:15.199Z,42.50
2024-04-01T21:15:43.215Z,42.50
2024-04-01T21:18:11.416Z,48.75
2024-04-01T21:20:39.523Z,44.00
2024-04-01T21:23:07.712Z,41.33
2024-04-01T21:25:35.763Z,49.75
2024-04-01T21:28:04.653Z,43.75
2024-04-01T21:30:32.554Z,39.33
2024-04-01T21:33:01.340Z,40.00
2024-04-01T21:35:29.563Z,36.50
2024-04-01T21:37:57.631Z,31.50
2024-04-01T21:40:25.932Z,30.50
2024-04-01T21:42:54.049Z,33.50
2024-04-01T21:45:22.325Z,39.75
2024-04-01T21:47:52.456Z,45.25
2024-04-01T21:50:23.086Z,51.75
2024-04-01T21:52:51.987Z,47.25
2024-04-01T21:55:19.908Z,45.00
2024-04-01T21:57:48.495Z,34.75
2024-04-01T22:00:25.215Z,37.25
2024-04-01T22:02:53.488Z,44.00
2024-04-01T22:05:21.823Z,37.75
2024-04-01T22:07:50.242Z,51.00
2024-04-01T22:10:18.922Z,47.75
2024-04-01T22:12:47.095Z,43.67
2024-04-01T22:15:15.158Z,46.33
2024-04-01T22:17:43.381Z,49.00
2024-04-01T22:20:12.561Z,38.75
2024-04-01T22:22:40.820Z,38.50
2024-04-01T22:25:09.208Z,34.25
2024-04-01T22:27:39.080Z,39.50
2024-04-01T22:30:08.231Z,48.75
2024-04-01T22:32:36.201Z,38.00
2024-04-01T22:35:04.470Z,34.50
2024-04-01T22:37:32.531Z,34.75
2024-04-01T22:40:01.917Z,31.33
2024-04-01T22:42:30.776Z,40.25
2024-04-01T22:44:58.820Z,32.75
2024-04-01T22:47:26.778Z,37.50
2024-04-01T22:49:55.225Z,47.75
2024-04-01T22:52:23.295Z,47.00
2024-04-01T22:54:51.280Z,47.00
2024-04-01T22:57:19.206Z,44.25
2024-04-01T22:59:47.242Z,49.25
2024-04-01T23:02:15.328Z,37.25
2024-04-01T23:04:43.390Z,44.25
2024-04-01T23:07:11.481Z,45.50
2024-04-01T23:09:39.573Z,40.00
2024-04-01T23:12:08.111Z,47.75
2024-04-01T23:14:43.932Z,44.25
2024-04-01T23:17:14.317Z,32.00
2024-04-01T23:19:42.473Z,52.25
2024-04-01T23:22:10.630Z,45.25
2024-04-01T23:24:41.591Z,51.67
2024-04-01T23:27:09.661Z,36.25
2024-04-01T23:29:37.740Z,40.00
2024-04-01T23:32:06.263Z,44.75
2024-04-01T23:34:34.457Z,36.50
2024-04-01T23:37:02.577Z,34.25
2024-04-01T23:39:30.895Z,36.00
2024-04-01T23:41:59.031Z,46.25
2024-04-01T23:44:27.157Z,38.75
2024-04-01T23:46:55.184Z,40.75
2024-04-01T23:49:23.284Z,38.75
2024-04-01T23:51:51.446Z,34.00
2024-04-01T23:54:19.664Z,35.00
2024-04-01T23:56:47.753Z,47.50
2024-04-01T23:59:18.324Z,33.00
